Time;durP1;ratioP1;P1;durP2;ratioP2;P2;SDS_P1;SDS_P2;PMS_P1;PMS_P2;Temp;Humidity;BMP_temperature;BMP_pressure;BME280_temperature;BME280_humidity;BME280_pressure;Samples;Min_cycle;Max_cycle;Signal;HPM_P1;HPM_P2
2023/10/29 00:00:15;;;;;;;0.00;0.00;;;;;;;8.79;100.00;97077.44;4939826;28;20039;-78
2023/10/29 00:02:43;;;;;;;0.00;0.00;;;;;;;8.69;100.00;97073.22;4924831;28;20032;-78
2023/10/29 00:05:09;;;;;;;0.00;0.00;;;;;;;8.77;100.00;97090.63;4924330;28;21864;-77
2023/10/29 00:07:34;;;;;;;0.00;0.00;;;;;;;8.63;100.00;97085.44;4919667;29;20067;-78
2023/10/29 00:10:00;;;;;;;0.00;0.00;;;;;;;8.80;100.00;97125.38;4926097;28;20031;-77
2023/10/29 00:12:35;;;;;;;0.00;0.00;;;;;;;8.41;100.00;97062.88;4910558;29;20035;-78
2023/10/29 00:15:02;;;;;;;0.03;0.03;;;;;;;8.21;100.00;97040.00;4911789;28;20677;-77
2023/10/29 00:17:38;;;;;;;0.00;0.00;;;;;;;8.34;100.00;97077.03;4933785;28;20027;-78
2023/10/29 00:20:11;;;;;;;0.00;0.00;;;;;;;8.30;100.00;97072.59;4926036;28;20063;-78
2023/10/29 00:22:37;;;;;;;0.00;0.00;;;;;;;8.33;100.00;97096.41;4907708;29;20039;-78
2023/10/29 00:25:02;;;;;;;0.00;0.00;;;;;;;8.30;100.00;97110.69;4929233;28;20031;-77
2023/10/29 00:27:28;;;;;;;0.00;0.00;;;;;;;7.97;100.00;97070.56;4927489;29;20045;-77
2023/10/29 00:29:53;;;;;;;0.00;0.00;;;;;;;8.26;100.00;97131.53;4931772;29;20019;-76
2023/10/29 00:32:21;;;;;;;0.00;0.00;;;;;;;8.19;100.00;97132.88;4915542;28;20102;-77
2023/10/29 00:34:47;;;;;;;0.00;0.00;;;;;;;8.04;100.00;97120.66;4913493;29;20554;-78
2023/10/29 00:37:14;;;;;;;0.00;0.00;;;;;;;7.89;100.00;97112.25;4905055;28;20071;-75
2023/10/29 00:39:40;;;;;;;0.00;0.00;;;;;;;7.85;100.00;97115.59;4929102;28;20488;-78
2023/10/29 00:42:06;;;;;;;0.00;0.00;;;;;;;7.91;100.00;97148.88;4937361;28;20035;-78
2023/10/29 00:44:31;;;;;;;0.00;0.00;;;;;;;7.75;100.00;97124.16;4908382;28;20025;-77
2023/10/29 00:46:57;;;;;;;0.10;0.10;;;;;;;7.64;100.00;97117.50;4898374;29;20521;-78
2023/10/29 00:49:24;;;;;;;0.00;0.00;;;;;;;7.49;100.00;97105.22;4925414;28;20064;-78
2023/10/29 00:51:50;;;;;;;0.00;0.00;;;;;;;7.45;100.00;97110.53;4924255;29;20031;-78
2023/10/29 00:54:23;;;;;;;0.00;0.00;;;;;;;7.47;100.00;97123.81;4926135;28;20063;-77
2023/10/29 00:56:53;;;;;;;0.00;0.00;;;;;;;7.30;100.00;97108.34;4901547;29;20070;-77
2023/10/29 00:59:21;;;;;;;0.00;0.00;;;;;;;7.42;100.00;97127.50;4938876;28;20049;-78
2023/10/29 01:01:54;;;;;;;0.00;0.00;;;;;;;7.49;100.00;97133.25;4928474;29;20487;-77
2023/10/29 01:04:20;;;;;;;0.00;0.00;;;;;;;7.44;100.00;97138.84;4916037;28;20028;-78
2023/10/29 01:06:49;;;;;;;0.00;0.00;;;;;;;7.51;100.00;97136.41;4915447;28;20526;-78
2023/10/29 01:09:14;;;;;;;0.00;0.00;;;;;;;7.71;100.00;97164.03;4940427;29;20066;-78
2023/10/29 01:11:40;;;;;;;0.00;0.00;;;;;;;7.88;100.00;97165.84;4942997;28;20112;-77
2023/10/29 01:14:08;;;;;;;0.00;0.00;;;;;;;7.93;100.00;97145.81;4928999;29;20114;-78
2023/10/29 01:16:33;;;;;;;0.00;0.00;;;;;;;8.17;100.00;97184.09;4928423;28;20098;-76
2023/10/29 01:18:59;;;;;;;0.00;0.00;;;;;;;8.29;100.00;97174.44;4940660;28;20023;-77
2023/10/29 01:21:35;;;;;;;0.00;0.00;;;;;;;8.47;100.00;97181.38;4922621;29;20038;-76
2023/10/29 01:24:02;;;;;;;0.00;0.00;;;;;;;8.43;100.00;97180.41;4924566;29;20075;-78
2023/10/29 01:26:28;;;;;;;0.00;0.00;;;;;;;8.37;100.00;97173.59;4948485;28;20619;-77
2023/10/29 01:28:53;;;;;;;0.00;0.00;;;;;;;8.28;100.00;97161.94;4903232;28;20027;-77
2023/10/29 01:31:19;;;;;;;0.00;0.00;;;;;;;8.38;100.00;97194.22;4930871;29;20035;-78
2023/10/29 01:33:44;;;;;;;0.10;0.10;;;;;;;8.18;100.00;97174.81;4902966;28;20038;-77
2023/10/29 01:36:10;;;;;;;0.10;0.10;;;;;;;8.34;100.00;97215.09;4955005;28;20027;-78
2023/10/29 01:39:03;;;;;;;0.00;0.00;;;;;;;8.08;100.00;97183.34;4956494;28;20062;-77
2023/10/29 01:41:39;;;;;;;;;;;;;;;;;;;;;
2023/10/29 01:44:05;;;;;;;0.10;0.10;;;;;;;8.45;100.00;97242.75;4947935;28;21312;-77
2023/10/29 01:46:30;;;;;;;0.00;0.00;;;;;;;8.41;100.00;97236.34;4915223;29;20034;-77
2023/10/29 01:49:00;;;;;;;0.00;0.00;;;;;;;8.25;100.00;97223.31;4937454;28;20856;-76
2023/10/29 01:51:26;;;;;;;0.00;0.00;;;;;;;8.23;100.00;97216.59;4931592;28;20034;-78
2023/10/29 01:53:51;;;;;;;0.00;0.00;;;;;;;8.36;100.00;97234.59;4936298;28;20385;-78
2023/10/29 01:56:16;;;;;;;0.00;0.00;;;;;;;8.27;100.00;97242.03;4941323;28;20447;-76
2023/10/29 01:58:42;;;;;;;0.00;0.00;;;;;;;8.18;100.00;97223.81;4929019;29;20030;-77
2023/10/29 02:01:11;;;;;;;0.00;0.00;;;;;;;8.21;100.00;97235.97;4931981;28;20744;-77
2023/10/29 02:03:38;;;;;;;0.00;0.00;;;;;;;8.34;100.00;97247.75;4934166;28;20085;-77
2023/10/29 02:06:04;;;;;;;0.00;0.00;;;;;;;8.33;100.00;97259.75;4967197;28;20030;-78
2023/10/29 02:08:32;;;;;;;0.00;0.00;;;;;;;8.13;100.00;97237.63;4938303;28;20041;-78
2023/10/29 02:10:57;;;;;;;0.10;0.10;;;;;;;8.23;100.00;97273.75;4937330;28;20031;-77
2023/10/29 02:13:28;;;;;;;0.00;0.00;;;;;;;8.25;100.00;97268.75;4931592;28;20083;-77
2023/10/29 02:16:19;;;;;;;0.10;0.10;;;;;;;8.15;100.00;97248.97;4930899;28;20044;-82
2023/10/29 02:18:50;;;;;;;0.00;0.00;;;;;;;8.33;100.00;97278.81;4907121;28;21398;-79
2023/10/29 02:21:16;;;;;;;0.00;0.00;;;;;;;8.09;100.00;97241.28;4938838;29;20027;-78
2023/10/29 02:23:41;;;;;;;0.00;0.00;;;;;;;8.15;100.00;97267.22;4932831;28;20477;-76
2023/10/29 02:26:07;;;;;;;0.00;0.00;;;;;;;8.49;100.00;97309.06;4953785;28;20102;-76
2023/10/29 02:28:32;;;;;;;0.00;0.00;;;;;;;8.39;100.00;97300.06;4943404;28;20031;-76
2023/10/29 02:31:03;;;;;;;0.00;0.00;;;;;;;8.24;100.00;97302.56;4906811;28;20528;-75
2023/10/29 02:33:30;;;;;;;0.00;0.00;;;;;;;8.25;100.00;97293.25;4954191;28;20039;-75
2023/10/29 02:35:59;;;;;;;0.00;0.00;;;;;;;8.25;100.00;97282.38;4926236;28;20024;-76
2023/10/29 02:38:24;;;;;;;0.00;0.00;;;;;;;8.26;100.00;97297.59;4918064;29;20039;-77
2023/10/29 02:40:55;;;;;;;0.00;0.00;;;;;;;8.13;100.00;97264.84;4922444;28;20031;-78
2023/10/29 02:43:23;;;;;;;0.00;0.00;;;;;;;8.19;100.00;97266.25;4930668;29;20031;-78
2023/10/29 02:45:50;;;;;;;0.00;0.00;;;;;;;8.26;100.00;97292.16;4920868;28;20027;-77
2023/10/29 02:48:16;;;;;;;0.00;0.00;;;;;;;8.02;100.00;97253.50;4930093;29;20033;-77
2023/10/29 02:50:41;;;;;;;0.00;0.00;;;;;;;8.33;100.00;97295.16;4895737;29;20032;-77
2023/10/29 02:53:06;;;;;;;0.00;0.00;;;;;;;8.13;100.00;97274.91;4926182;28;20049;-78
2023/10/29 02:55:32;;;;;;;0.00;0.00;;;;;;;8.04;100.00;97274.94;4939341;29;20383;-78
2023/10/29 02:57:57;;;;;;;0.00;0.00;;;;;;;8.05;100.00;97298.31;4928322;28;20039;-77
2023/10/29 03:00:23;;;;;;;0.00;0.00;;;;;;;7.82;100.00;97282.22;4919413;29;20482;-78
2023/10/29 03:02:48;;;;;;;0.00;0.00;;;;;;;7.62;100.00;97272.03;4945303;28;20031;-78
2023/10/29 03:05:28;;;;;;;0.00;0.00;;;;;;;7.46;100.00;97253.53;4931244;28;20045;-78
2023/10/29 03:08:06;;;;;;;;;;;;;;;;;;;;;
2023/10/29 03:10:34;;;;;;;0.00;0.00;;;;;;;7.36;100.00;97264.72;4912270;28;20031;-76
2023/10/29 03:13:00;;;;;;;0.00;0.00;;;;;;;7.25;100.00;97264.25;4928400;28;20500;-76
2023/10/29 03:15:26;;;;;;;0.00;0.00;;;;;;;7.30;100.00;97277.69;4915746;28;20055;-78
2023/10/29 03:17:51;;;;;;;0.00;0.00;;;;;;;7.19;100.00;97260.09;4917325;29;20031;-77
2023/10/29 03:20:17;;;;;;;0.00;0.00;;;;;;;7.23;100.00;97265.69;4928753;28;20042;-76
2023/10/29 03:22:45;;;;;;;0.00;0.00;;;;;;;7.19;100.00;97270.19;4917482;29;20035;-78
2023/10/29 03:25:10;;;;;;;0.00;0.00;;;;;;;7.06;100.00;97261.06;4919411;28;20559;-78
2023/10/29 03:27:38;;;;;;;0.00;0.00;;;;;;;7.27;100.00;97310.94;4911731;29;20060;-77
2023/10/29 03:30:05;;;;;;;0.10;0.10;;;;;;;6.91;100.00;97265.06;4931894;28;20031;-78
2023/10/29 03:32:30;;;;;;;0.00;0.00;;;;;;;7.24;100.00;97321.66;4946020;28;20026;-79
2023/10/29 03:34:58;;;;;;;0.00;0.00;;;;;;;6.96;100.00;97273.06;4914992;29;20047;-78
2023/10/29 03:37:31;;;;;;;0.00;0.00;;;;;;;7.12;100.00;97300.53;4926146;28;20023;-78
2023/10/29 03:39:59;;;;;;;0.10;0.10;;;;;;;7.19;100.00;97319.09;4915021;29;20035;-76
2023/10/29 03:42:25;;;;;;;0.00;0.00;;;;;;;7.17;100.00;97322.16;4941389;28;20059;-77
2023/10/29 03:44:50;;;;;;;0.00;0.00;;;;;;;6.87;100.00;97285.84;4901456;29;20050;-78
2023/10/29 03:47:26;;;;;;;0.00;0.00;;;;;;;6.95;100.00;97301.31;4934011;28;20023;-76
2023/10/29 03:49:51;;;;;;;0.00;0.00;;;;;;;6.73;100.00;97265.06;4933287;28;20019;-76
2023/10/29 03:52:19;;;;;;;0.10;0.10;;;;;;;6.98;100.00;97308.88;4914536;28;20032;-77
2023/10/29 03:54:45;;;;;;;0.00;0.00;;;;;;;6.76;100.00;97291.59;4913210;28;20027;-77
2023/10/29 03:57:13;;;;;;;0.00;0.00;;;;;;;6.84;100.00;97314.44;4929688;29;20043;-77
2023/10/29 03:59:41;;;;;;;0.10;0.10;;;;;;;6.68;100.00;97305.94;4919981;28;20035;-75
2023/10/29 04:02:06;;;;;;;0.00;0.00;;;;;;;6.65;100.00;97312.00;4952736;28;20030;-75
2023/10/29 04:04:33;;;;;;;0.00;0.00;;;;;;;6.60;100.00;97298.56;4930266;28;20034;-76
2023/10/29 04:07:08;;;;;;;0.00;0.00;;;;;;;6.60;100.00;97317.56;4944626;28;20032;-76
2023/10/29 04:09:36;;;;;;;0.00;0.00;;;;;;;6.43;100.00;97300.13;4937573;28;20026;-78
2023/10/29 04:12:01;;;;;;;0.00;0.00;;;;;;;6.50;100.00;97320.56;4912397;28;20027;-76
2023/10/29 04:14:27;;;;;;;0.00;0.00;;;;;;;6.41;100.00;97315.13;4927176;29;20028;-76
2023/10/29 04:17:09;;;;;;;0.00;0.00;;;;;;;6.21;100.00;97302.94;4897971;28;20123;-77
2023/10/29 04:19:34;;;;;;;0.00;0.00;;;;;;;6.23;100.00;97322.41;4928584;28;20601;-77
2023/10/29 04:22:01;;;;;;;0.00;0.00;;;;;;;6.23;100.00;97316.97;4900621;29;20062;-78
2023/10/29 04:24:29;;;;;;;0.00;0.00;;;;;;;6.24;100.00;97324.03;4921878;29;20126;-77
2023/10/29 04:27:04;;;;;;;0.00;0.00;;;;;;;6.20;100.00;97309.47;4906635;28;20118;-77
2023/10/29 04:29:32;;;;;;;0.00;0.00;;;;;;;6.36;100.00;97337.78;4927243;28;20055;-77
2023/10/29 04:32:00;;;;;;;0.00;0.00;;;;;;;6.29;100.00;97315.72;4914570;29;20027;-77
2023/10/29 04:34:25;;;;;;;0.00;0.00;;;;;;;6.39;100.00;97312.72;4925735;28;20031;-77
2023/10/29 04:36:57;;;;;;;0.00;0.00;;;;;;;6.56;100.00;97317.41;4930042;29;20042;-77
2023/10/29 04:39:22;;;;;;;0.00;0.00;;;;;;;6.85;100.00;97331.53;4936369;28;20122;-77
2023/10/29 04:41:48;;;;;;;0.10;0.10;;;;;;;6.98;100.00;97319.72;4921427;29;20163;-77
2023/10/29 04:44:16;;;;;;;0.00;0.00;;;;;;;7.21;100.00;97335.88;4918695;28;20034;-76
2023/10/29 04:46:41;;;;;;;0.10;0.10;;;;;;;7.34;100.00;97351.22;4942584;28;20398;-76
2023/10/29 04:49:07;;;;;;;0.00;0.00;;;;;;;7.22;100.00;97330.13;4943283;28;20057;-75
2023/10/29 04:51:33;;;;;;;0.00;0.00;;;;;;;7.50;100.00;97373.28;4926399;28;20394;-76
2023/10/29 04:53:59;;;;;;;0.10;0.10;;;;;;;7.40;100.00;97352.66;4933146;28;20027;-76
2023/10/29 04:56:25;;;;;;;0.00;0.00;;;;;;;7.48;100.00;97359.22;4929462;28;20116;-76
2023/10/29 04:58:51;;;;;;;0.00;0.00;;;;;;;7.49;100.00;97345.31;4906952;28;20044;-76
2023/10/29 05:01:17;;;;;;;0.00;0.00;;;;;;;7.35;100.00;97339.25;4915824;28;20031;-76
2023/10/29 05:03:46;;;;;;;0.10;0.10;;;;;;;7.25;100.00;97331.41;4927121;28;21680;-77
2023/10/29 05:06:21;;;;;;;0.00;0.00;;;;;;;7.30;100.00;97342.94;4910268;29;20055;-76
2023/10/29 05:08:47;;;;;;;0.00;0.00;;;;;;;7.24;100.00;97337.94;4938879;28;20094;-78
2023/10/29 05:11:13;;;;;;;0.00;0.00;;;;;;;7.17;100.00;97327.56;4947027;28;20478;-77
2023/10/29 05:13:39;;;;;;;0.00;0.00;;;;;;;7.19;100.00;97336.19;4924088;28;20045;-77
2023/10/29 05:16:15;;;;;;;;;;;;;;;;;;;;;
2023/10/29 05:18:41;;;;;;;0.00;0.00;;;;;;;7.15;100.00;97330.63;4940733;28;20077;-77
2023/10/29 05:21:07;;;;;;;0.00;0.00;;;;;;;6.96;100.00;97316.53;4924931;29;20035;-78
2023/10/29 05:23:34;;;;;;;0.08;0.08;;;;;;;6.90;100.00;97312.38;4927019;28;20099;-77
2023/10/29 05:26:02;;;;;;;0.00;0.00;;;;;;;6.89;100.00;97324.34;4901258;29;20028;-78
2023/10/29 05:28:29;;;;;;;0.00;0.00;;;;;;;6.73;100.00;97305.81;4914806;29;20027;-78
2023/10/29 05:30:55;;;;;;;0.00;0.00;;;;;;;6.87;100.00;97337.44;4913466;28;20083;-76
2023/10/29 05:33:20;;;;;;;0.00;0.00;;;;;;;6.91;100.00;97362.88;4909716;29;20031;-79
2023/10/29 05:35:46;;;;;;;0.00;0.00;;;;;;;6.69;100.00;97340.13;4906823;28;20039;-77
2023/10/29 05:38:19;;;;;;;0.00;0.00;;;;;;;6.69;100.00;97344.75;4927658;29;20035;-77
2023/10/29 05:40:44;;;;;;;0.00;0.00;;;;;;;6.68;100.00;97322.22;4930265;28;20027;-76
2023/10/29 05:43:10;;;;;;;0.00;0.00;;;;;;;6.67;100.00;97320.63;4908221;28;20130;-77
2023/10/29 05:45:37;;;;;;;0.00;0.00;;;;;;;6.97;100.00;97370.53;4900672;28;20098;-78
2023/10/29 05:48:05;;;;;;;0.00;0.00;;;;;;;6.92;100.00;97370.69;4921347;28;20034;-77
2023/10/29 05:50:43;;;;;;;;;;;;;;;;;;;;;
2023/10/29 05:53:08;;;;;;;0.00;0.00;;;;;;;6.96;100.00;97365.41;4943967;28;20559;-79
2023/10/29 05:55:35;;;;;;;0.00;0.00;;;;;;;6.92;100.00;97359.84;4938213;28;20043;-76
2023/10/29 05:58:00;;;;;;;0.10;0.10;;;;;;;6.97;100.00;97351.53;4914734;28;20027;-78
2023/10/29 06:00:26;;;;;;;0.00;0.00;;;;;;;7.14;100.00;97377.09;4888145;28;20494;-79
2023/10/29 06:02:51;;;;;;;0.00;0.00;;;;;;;6.95;100.00;97333.94;4911283;28;20125;-78
2023/10/29 06:05:44;;;;;;;0.00;0.00;;;;;;;7.06;100.00;97351.53;4895301;29;20030;-78
2023/10/29 06:08:12;;;;;;;0.00;0.00;;;;;;;7.14;100.00;97356.19;4912869;28;20046;-77
2023/10/29 06:11:37;;;;;;;;;;;;;;;;;;;;;
2023/10/29 06:18:06;;;;;;;;;;;;;;;;;;;;;
2023/10/29 06:24:06;;;;;;;0.00;0.00;;;;;;;7.27;100.00;97337.31;4912171;29;20042;-81
2023/10/29 06:39:44;;;;;;;0.00;0.00;;;;;;;7.59;100.00;97340.66;4900652;29;20046;-78
2023/10/29 06:42:17;;;;;;;0.00;0.00;;;;;;;7.73;100.00;97341.28;4916758;29;20185;-78
2023/10/29 06:44:43;;;;;;;0.00;0.00;;;;;;;7.98;100.00;97374.22;4929428;29;20459;-79
2023/10/29 06:47:08;;;;;;;0.00;0.00;;;;;;;7.65;100.00;97342.09;4895806;29;20064;-75
2023/10/29 06:49:34;;;;;;;0.00;0.00;;;;;;;7.84;100.00;97372.47;4909609;29;20085;-76
2023/10/29 06:52:02;;;;;;;0.00;0.00;;;;;;;7.93;100.00;97394.22;4889264;29;20110;-75
2023/10/29 06:54:27;;;;;;;0.00;0.00;;;;;;;8.14;100.00;97407.16;4902357;29;21411;-76
2023/10/29 06:56:55;;;;;;;0.00;0.00;;;;;;;7.77;100.00;97352.31;4896569;29;20035;-76
2023/10/29 06:59:25;;;;;;;0.00;0.00;;;;;;;7.80;100.00;97371.53;4911837;29;20057;-76
2023/10/29 07:01:58;;;;;;;0.00;0.00;;;;;;;7.42;100.00;97328.69;4886031;29;20031;-75
2023/10/29 07:04:24;;;;;;;0.00;0.00;;;;;;;7.70;100.00;97393.59;4914839;29;20423;-76
2023/10/29 07:06:52;;;;;;;0.00;0.00;;;;;;;7.46;100.00;97373.16;4912810;29;20028;-75
2023/10/29 07:09:20;;;;;;;0.00;0.00;;;;;;;7.31;100.00;97349.94;4919783;29;20035;-76
2023/10/29 07:11:45;;;;;;;0.00;0.00;;;;;;;7.38;100.00;97363.06;4897301;29;20051;-75
2023/10/29 07:14:12;;;;;;;0.00;0.00;;;;;;;7.69;100.00;97394.72;4908826;29;20020;-76
2023/10/29 07:16:43;;;;;;;0.00;0.00;;;;;;;7.47;100.00;97357.63;4914581;28;20051;-77
2023/10/29 07:19:12;;;;;;;0.00;0.00;;;;;;;7.46;100.00;97362.28;4920435;29;20031;-76
2023/10/29 07:21:38;;;;;;;0.00;0.00;;;;;;;7.55;100.00;97386.75;4929522;29;20038;-75
2023/10/29 07:24:15;;;;;;;0.00;0.00;;;;;;;7.46;100.00;97375.88;4916443;28;20015;-76
2023/10/29 07:26:41;;;;;;;0.00;0.00;;;;;;;7.48;100.00;97384.50;4916179;29;20037;-76
2023/10/29 07:29:11;;;;;;;0.00;0.00;;;;;;;7.39;100.00;97363.84;4912371;28;20042;-75
2023/10/29 07:31:37;;;;;;;0.00;0.00;;;;;;;7.74;100.00;97405.44;4942016;28;20321;-76
2023/10/29 07:34:27;;;;;;;0.10;0.10;;;;;;;7.69;100.00;97386.56;4936209;28;20038;-75
2023/10/29 07:36:52;;;;;;;0.00;0.00;;;;;;;7.86;100.00;97402.88;4911020;29;20035;-75
2023/10/29 07:39:17;;;;;;;0.00;0.00;;;;;;;7.71;100.00;97373.47;4918374;28;20028;-75
2023/10/29 07:41:43;;;;;;;0.00;0.00;;;;;;;7.83;100.00;97387.19;4919931;29;20044;-75
2023/10/29 07:44:17;;;;;;;0.00;0.00;;;;;;;7.81;100.00;97372.31;4896346;28;21405;-75
2023/10/29 07:46:46;;;;;;;0.00;0.00;;;;;;;7.84;100.00;97372.47;4927597;28;20118;-75
2023/10/29 07:49:11;;;;;;;0.00;0.00;;;;;;;7.85;100.00;97370.53;4917943;28;20036;-75
2023/10/29 07:51:36;;;;;;;0.00;0.00;;;;;;;8.04;100.00;97392.78;4935726;28;20027;-76
2023/10/29 07:54:05;;;;;;;0.00;0.00;;;;;;;7.90;100.00;97359.50;4908175;28;20490;-75
2023/10/29 07:56:30;;;;;;;0.00;0.00;;;;;;;8.05;100.00;97371.78;4940476;28;20377;-75
2023/10/29 07:59:05;;;;;;;0.00;0.00;;;;;;;8.16;100.00;97383.94;4930796;29;20063;-76
2023/10/29 08:01:31;;;;;;;0.00;0.00;;;;;;;8.26;100.00;97387.44;4924639;28;20043;-75
2023/10/29 08:04:06;;;;;;;0.00;0.00;;;;;;;8.37;100.00;97385.97;4915094;29;20451;-76
2023/10/29 08:06:32;;;;;;;0.10;0.10;;;;;;;8.49;100.00;97380.66;4928108;28;21439;-75
2023/10/29 08:08:57;;;;;;;0.00;0.00;;;;;;;8.58;100.00;97367.00;4912618;29;20125;-75
2023/10/29 08:11:23;;;;;;;0.00;0.00;;;;;;;8.72;100.00;97370.28;4927669;28;20085;-75
2023/10/29 08:13:50;;;;;;;0.00;0.00;;;;;;;8.78;100.00;97364.66;4910882;29;20529;-75
2023/10/29 08:16:18;;;;;;;0.00;0.00;;;;;;;8.97;100.00;97373.19;4913328;28;20552;-76
2023/10/29 08:18:54;;;;;;;0.00;0.00;;;;;;;9.15;100.00;97389.44;4938859;28;20140;-75
2023/10/29 08:21:19;;;;;;;0.00;0.00;;;;;;;9.10;100.00;97368.63;4934760;28;20039;-75
2023/10/29 08:23:53;;;;;;;0.00;0.00;;;;;;;9.23;100.00;97378.47;4920162;28;20497;-74
2023/10/29 08:26:28;;;;;;;;;;;;;;;;;;;;;
2023/10/29 08:28:54;;;;;;;0.00;0.00;;;;;;;9.45;100.00;97406.56;4928618;28;20035;-76
2023/10/29 08:31:22;;;;;;;0.00;0.00;;;;;;;9.36;100.00;97378.53;4924760;29;20038;-77
2023/10/29 08:33:49;;;;;;;0.00;0.00;;;;;;;9.40;100.00;97374.03;4929060;28;20090;-75
2023/10/29 08:36:16;;;;;;;0.00;0.00;;;;;;;9.36;100.00;97364.91;4909327;28;20106;-76
2023/10/29 08:38:42;;;;;;;0.00;0.00;;;;;;;9.56;100.00;97396.88;4940841;28;20488;-73
2023/10/29 08:41:17;;;;;;;0.00;0.00;;;;;;;9.51;100.00;97375.22;4939180;28;20034;-76
2023/10/29 08:43:44;;;;;;;0.00;0.00;;;;;;;9.58;100.00;97374.69;4928614;29;20047;-76
2023/10/29 08:46:10;;;;;;;0.00;0.00;;;;;;;9.88;100.00;97416.31;4935512;28;20029;-75
2023/10/29 08:48:40;;;;;;;0.00;0.00;;;;;;;9.73;100.00;97393.16;4947269;28;20023;-75
2023/10/29 08:51:06;;;;;;;0.00;0.00;;;;;;;9.76;100.00;97391.72;4926084;28;20063;-76
2023/10/29 08:53:33;;;;;;;0.00;0.00;;;;;;;9.65;100.00;97379.59;4927771;29;20125;-75
2023/10/29 08:55:59;;;;;;;0.00;0.00;;;;;;;9.83;100.00;97413.81;4930724;28;20039;-73
2023/10/29 08:58:24;;;;;;;0.00;0.00;;;;;;;9.59;100.00;97381.72;4922529;29;20027;-76
2023/10/29 09:00:51;;;;;;;0.00;0.00;;;;;;;9.35;100.00;97366.06;4927550;28;20027;-75
2023/10/29 09:03:18;;;;;;;0.00;0.00;;;;;;;9.25;100.00;97368.03;4935360;28;20026;-75
2023/10/29 09:05:46;;;;;;;0.00;0.00;;;;;;;9.31;100.00;97393.19;4927150;28;20027;-75
2023/10/29 09:08:43;;;;;;;;;;;;;;;;;;;;;
2023/10/29 09:11:15;;;;;;;0.00;0.00;;;;;;;9.28;100.00;97406.69;4936306;28;20032;-78
2023/10/29 09:14:26;;;;;;;0.00;0.00;;;;;;;9.28;100.00;97415.66;4928451;28;20031;-75
2023/10/29 09:16:52;;;;;;;0.00;0.00;;;;;;;9.28;100.00;97431.22;4932920;28;20051;-76
2023/10/29 09:19:17;;;;;;;0.00;0.00;;;;;;;9.06;100.00;97392.22;4947090;28;20031;-80
2023/10/29 09:21:44;;;;;;;0.00;0.00;;;;;;;9.18;100.00;97405.13;4921264;28;20134;-78
2023/10/29 09:24:12;;;;;;;0.00;0.00;;;;;;;9.25;100.00;97417.09;4926759;28;20036;-77
2023/10/29 09:26:37;;;;;;;0.00;0.00;;;;;;;9.25;100.00;97428.00;4898678;29;20038;-79
2023/10/29 09:29:11;;;;;;;0.00;0.00;;;;;;;9.24;100.00;97426.44;4906307;28;20682;-77
2023/10/29 09:31:37;;;;;;;0.00;0.00;;;;;;;9.26;100.00;97424.16;4930172;28;20038;-76
2023/10/29 09:34:05;;;;;;;0.00;0.00;;;;;;;9.23;100.00;97435.75;4909888;28;21493;-78
2023/10/29 09:36:31;;;;;;;0.00;0.00;;;;;;;9.07;100.00;97421.88;4928104;29;20019;-78
2023/10/29 09:38:59;;;;;;;0.00;0.00;;;;;;;9.10;100.00;97436.78;4910602;28;20421;-78
2023/10/29 09:41:27;;;;;;;0.00;0.00;;;;;;;8.93;100.00;97423.25;4902755;29;20391;-76
2023/10/29 09:43:57;;;;;;;0.00;0.00;;;;;;;9.08;100.00;97458.09;4918099;28;20039;-77
2023/10/29 09:46:26;;;;;;;0.00;0.00;;;;;;;8.97;100.00;97443.28;4941548;28;20031;-76
2023/10/29 09:48:53;;;;;;;0.00;0.00;;;;;;;9.03;100.00;97447.41;4933008;29;20031;-77
2023/10/29 09:51:19;;;;;;;0.00;0.00;;;;;;;8.94;100.00;97427.59;4904897;28;20027;-77
2023/10/29 09:53:49;;;;;;;0.00;0.00;;;;;;;9.05;100.00;97436.97;4931867;29;20031;-76
2023/10/29 09:56:15;;;;;;;0.00;0.00;;;;;;;9.21;100.00;97464.47;4919572;28;20015;-76
2023/10/29 09:58:42;;;;;;;0.00;0.00;;;;;;;9.16;100.00;97467.38;4939208;28;20031;-77
2023/10/29 10:01:08;;;;;;;0.00;0.00;;;;;;;9.19;100.00;97467.50;4932999;28;20032;-77
2023/10/29 10:03:34;;;;;;;0.00;0.00;;;;;;;9.22;100.00;97471.50;4935250;28;20039;-77
2023/10/29 10:06:07;;;;;;;0.00;0.00;;;;;;;9.46;100.00;97492.69;4957552;28;20034;-76
2023/10/29 10:08:33;;;;;;;0.00;0.00;;;;;;;9.39;100.00;97485.06;4941351;28;20039;-76
2023/10/29 10:11:01;;;;;;;0.00;0.00;;;;;;;9.24;100.00;97475.53;4926550;29;20031;-78
2023/10/29 10:13:37;;;;;;;0.10;0.10;;;;;;;9.35;100.00;97492.28;4923177;28;20019;-76
2023/10/29 10:16:11;;;;;;;0.00;0.00;;;;;;;9.18;100.00;97470.56;4934721;28;20078;-77
2023/10/29 10:19:04;;;;;;;0.00;0.00;;;;;;;9.30;100.00;97492.50;4944721;28;20073;-77
2023/10/29 10:21:47;;;;;;;0.00;0.00;;;;;;;8.91;100.00;97438.00;4933425;28;20297;-76
2023/10/29 10:24:14;;;;;;;0.00;0.00;;;;;;;8.88;100.00;97437.88;4916251;28;20462;-75
2023/10/29 10:26:49;;;;;;;0.00;0.00;;;;;;;8.88;100.00;97452.28;4933188;29;20081;-76
2023/10/29 10:29:14;;;;;;;0.00;0.00;;;;;;;8.96;100.00;97458.81;4916941;28;20035;-76
2023/10/29 10:31:45;;;;;;;0.00;0.00;;;;;;;9.00;100.00;97475.31;4921914;29;20086;-78
2023/10/29 10:34:19;;;;;;;0.00;0.00;;;;;;;9.07;100.00;97486.50;4929775;28;21933;-77
2023/10/29 10:36:53;;;;;;;0.00;0.00;;;;;;;9.00;100.00;97469.88;4930336;28;20176;-76
2023/10/29 10:39:22;;;;;;;0.00;0.00;;;;;;;8.91;100.00;97448.88;4930599;28;20035;-76
2023/10/29 10:41:49;;;;;;;0.00;0.00;;;;;;;8.99;100.00;97449.19;4943013;28;20478;-75
2023/10/29 10:44:19;;;;;;;0.00;0.00;;;;;;;9.15;100.00;97460.31;4933599;28;20123;-75
2023/10/29 10:46:58;;;;;;;0.00;0.00;;;;;;;9.24;100.00;97461.88;4921226;29;20154;-77
2023/10/29 10:49:24;;;;;;;0.00;0.00;;;;;;;9.19;100.00;97467.50;4923253;28;20030;-76
2023/10/29 10:54:52;;;;;;;0.00;0.00;;;;;;;8.94;100.00;97439.28;4923870;28;20402;-76
2023/10/29 10:57:18;;;;;;;0.00;0.00;;;;;;;9.06;100.00;97469.34;4939679;28;20039;-76
2023/10/29 10:59:58;;;;;;;;;;;;;;;;;;;;;
2023/10/29 11:02:40;;;;;;;0.00;0.00;;;;;;;8.78;100.00;97463.53;4954302;28;20023;-77
2023/10/29 11:05:10;;;;;;;0.00;0.00;;;;;;;8.55;100.00;97438.47;4934377;28;20099;-76
2023/10/29 11:07:43;;;;;;;0.00;0.00;;;;;;;8.70;100.00;97475.25;4933746;29;20481;-76
2023/10/29 11:10:12;;;;;;;0.00;0.00;;;;;;;8.62;100.00;97465.22;4925691;28;20034;-77
2023/10/29 11:12:40;;;;;;;0.00;0.00;;;;;;;8.79;100.00;97481.50;4944593;28;20019;-76
2023/10/29 11:15:28;;;;;;;0.00;0.00;;;;;;;9.00;100.00;97508.03;4926784;28;20049;-76
2023/10/29 11:18:06;;;;;;;0.00;0.00;;;;;;;9.26;100.00;97537.91;4915280;29;20054;-77
2023/10/29 11:23:34;;;;;;;0.00;0.00;;;;;;;8.73;100.00;97510.03;4914353;28;20036;-75
2023/10/29 11:26:23;;;;;;;0.00;0.00;;;;;;;8.72;100.00;97527.50;4927421;29;20024;-77
2023/10/29 11:28:50;;;;;;;0.00;0.00;;;;;;;8.63;100.00;97515.81;4939726;28;20751;-76
2023/10/29 11:31:39;;;;;;;0.00;0.00;;;;;;;8.66;100.00;97517.88;4943172;28;20055;-76
2023/10/29 11:52:32;;;;;;;;;;;;;;;;;;;;;
2023/10/29 11:59:25;;;;;;;;;;;;;;;;;;;;;
2023/10/29 12:02:25;;;;;;;;;;;;;;;;;;;;;
2023/10/29 12:11:41;;;;;;;;;;;;;;;;;;;;;
2023/10/29 12:14:25;;;;;;;;;;;;;;;;;;;;;
2023/10/29 12:17:19;;;;;;;0.00;0.00;;;;;;;20.01;100.00;97577.94;4673391;30;19946;-77
2023/10/29 12:20:53;;;;;;;;;;;;;;;;;;;;;
2023/10/29 12:24:05;;;;;;;;;;;;;;;;;;;;;
2023/10/29 12:27:27;;;;;;;;;;;;;;;;;;;;;
2023/10/29 12:30:53;;;;;;;;;;;;;;;;;;;;;
2023/10/29 12:33:33;;;;;;;0.00;0.00;;;;;;;31.95;50.06;97537.94;4782407;29;20049;-77
2023/10/29 12:36:03;;;;;;;0.00;0.00;;;;;;;31.28;51.33;97538.00;4846324;29;20041;-76
2023/10/29 12:42:10;;;;;;;0.00;0.00;;;;;;;28.05;49.96;97519.03;4932913;28;20024;-75
2023/10/29 12:44:50;;;;;;;0.00;0.00;;;;;;;24.90;62.26;97534.63;4912567;28;20031;-74
2023/10/29 12:47:23;;;;;;;0.00;0.00;;;;;;;24.68;65.52;97525.16;4937052;28;20093;-76
2023/10/29 12:50:00;;;;;;;0.00;0.00;;;;;;;23.91;66.70;97513.84;4935590;28;20069;-77
2023/10/29 12:52:30;;;;;;;0.00;0.00;;;;;;;21.52;66.03;97514.56;4897806;28;20127;-76
2023/10/29 12:55:06;;;;;;;0.00;0.00;;;;;;;19.43;74.70;97484.91;4919272;28;20439;-78
2023/10/29 12:57:31;;;;;;;0.00;0.00;;;;;;;18.08;80.24;97487.75;4926867;28;20122;-77
2023/10/29 13:00:04;;;;;;;0.00;0.00;;;;;;;16.86;77.24;97509.69;4913679;28;20046;-76
2023/10/29 13:02:29;;;;;;;0.00;0.00;;;;;;;15.90;81.77;97534.91;4931153;29;20062;-76
2023/10/29 13:04:55;;;;;;;0.00;0.00;;;;;;;15.05;86.43;97520.19;4919264;28;20110;-76
2023/10/29 13:07:22;;;;;;;0.00;0.00;;;;;;;14.65;89.69;97513.19;4921038;29;20419;-77
2023/10/29 13:09:52;;;;;;;0.00;0.00;;;;;;;14.72;92.21;97534.50;4930214;28;20031;-75